Kvb Contargo III & X — PD5101 — position and weather

sailwx.info

Track history (hours):
 
Tides and Currents Weather Stations Pressure Air Temp Water Temp Dewpoint Dewpoint Depression Visibility Wind Speed Wind Dir Waves Ship Positions

Kvb Contargo III & X

Last reported at 2014-Sep-30 11:33 UTC. Time now 2014-Sep-30 11:52 UTC.
Position N 51°18' E 004°16'.

Length 182 m.

Type: Ship. MMSI: 244670090.

Date/timePositionNaut miles runAvg speedWind from/ knotsBaromVisibWave heightAir tempDewpointWater temp
2014-Sep-30 11:33N 51°18' E 004°16'2 2.4
2014-Sep-30 10:33N 51°20' E 004°16'1 1.0
2014-Sep-30 09:33N 51°21' E 004°16'0 0.0
2014-Sep-30 08:33N 51°21' E 004°16'1 0.8
2014-Sep-30 07:33N 51°20' E 004°17'0 0.0
2014-Sep-30 06:33N 51°20' E 004°17'0 0.0
2014-Sep-30 05:33N 51°20' E 004°17'0 0.3
2014-Sep-30 04:34N 51°21' E 004°16'1 0.6
2014-Sep-30 03:33N 51°21' E 004°17'2 2.0
2014-Sep-30 02:33N 51°23' E 004°16'5 5.5
2014-Sep-30 01:33N 51°28' E 004°14'10 8.6
2014-Sep-30 00:27N 51°37' E 004°12'8 8.7
2014-Sep-29 23:32N 51°41' E 004°23'5 5.1
2014-Sep-29 22:33N 51°42' E 004°32'9 8.9
2014-Sep-29 21:33N 51°45' E 004°44'9 8.7
2014-Sep-29 20:33N 51°50' E 004°57'9 9.6
2014-Sep-29 19:33N 51°49' E 005°12'9 8.6
2014-Sep-29 18:33N 51°52' E 005°25'10 9.8
2014-Sep-29 17:33N 51°54' E 005°41'9 9.3
2014-Sep-29 16:33N 51°52' E 005°55'16 8.1
2014-Sep-29 14:33N 51°46' E 006°20'29 7.1
2014-Sep-29 10:30N 51°21' E 006°41'8 8.4
2014-Sep-29 09:33N 51°13' E 006°46'5 4.8
2014-Sep-29 08:33N 51°09' E 006°49'6 5.9
2014-Sep-29 07:33N 51°04' E 006°54'124 7.3
2014-Sep-28 14:33N 49°14' E 008°24'2 2.4
2014-Sep-28 13:33N 49°12' E 008°23'10 9.9
2014-Sep-28 12:32N 49°03' E 008°18'9 9.6
2014-Sep-28 11:33N 48°55' E 008°10'6 5.9
2014-Sep-28 10:33N 48°49' E 008°07'7 7.2
2014-Sep-28 09:33N 48°45' E 007°58'5 4.6
2014-Sep-28 08:33N 48°41' E 007°55'63 1.9
2014-Sep-26 23:15N 47°40' E 007°31'1 1.5
2014-Sep-26 22:24N 47°39' E 007°32'0 0.2
2014-Sep-26 21:27N 47°39' E 007°32'4 3.4
2014-Sep-26 20:24N 47°36' E 007°35'0 0.0
2014-Sep-26 17:24N 47°36' E 007°35'0 0.5
2014-Sep-26 16:33N 47°36' E 007°36'0 0.0
2014-Sep-26 15:33N 47°36' E 007°36'0 0.0
2014-Sep-26 14:33N 47°36' E 007°36'0 0.0
2014-Sep-26 13:33N 47°36' E 007°36'0 0.0
2014-Sep-26 12:33N 47°36' E 007°36'0 0.1
2014-Sep-26 11:13N 47°36' E 007°36'1 1.1
2014-Sep-26 10:33N 47°35' E 007°36'0 0.0
2014-Sep-26 09:33N 47°35' E 007°36'0 0.0
2014-Sep-26 08:33N 47°35' E 007°36'0 0.0
2014-Sep-26 07:33N 47°35' E 007°36'0 0.0
2014-Sep-26 06:33N 47°35' E 007°36'0 0.0
2014-Sep-26 05:33N 47°35' E 007°36'0 0.0
2014-Sep-26 04:33N 47°35' E 007°36'0 0.0
2014-Sep-26 03:33N 47°35' E 007°36'0 0.0
2014-Sep-26 02:33N 47°35' E 007°36'0 0.0
2014-Sep-26 01:33N 47°35' E 007°36'0 0.0
2014-Sep-26 00:33N 47°35' E 007°36'0 0.0
2014-Sep-25 23:33N 47°35' E 007°36'0 0.0
2014-Sep-25 22:33N 47°35' E 007°36'0 0.1
2014-Sep-25 21:33N 47°35' E 007°36'0 0.0
2014-Sep-25 20:33N 47°35' E 007°36'0 0.0
2014-Sep-25 19:32N 47°35' E 007°36'0 0.0
2014-Sep-25 18:33N 47°35' E 007°36'0 0.1
2014-Sep-25 17:33N 47°35' E 007°36'0 0.0
2014-Sep-25 16:33N 47°35' E 007°36'0 0.0
2014-Sep-25 15:33N 47°35' E 007°36'1 1.2
2014-Sep-25 14:33N 47°36' E 007°35'0 0.1
2014-Sep-25 13:33N 47°36' E 007°35'1 0.2
2014-Sep-25 07:33N 47°35' E 007°36'0 0.0
2014-Sep-25 06:33N 47°35' E 007°36'0 0.0
2014-Sep-25 05:33N 47°35' E 007°36'0 0.0
2014-Sep-25 04:34N 47°35' E 007°36'0 0.0
2014-Sep-25 03:33N 47°35' E 007°36'0 0.0
2014-Sep-25 02:33N 47°35' E 007°36'0 0.0
2014-Sep-25 01:33N 47°35' E 007°36'0 0.0
2014-Sep-25 00:33N 47°35' E 007°36'0 0.0
2014-Sep-24 23:33N 47°35' E 007°36'0 0.0
2014-Sep-24 22:33N 47°35' E 007°36'0 0.0
2014-Sep-24 21:33N 47°35' E 007°36'0 0.0
2014-Sep-24 20:33N 47°35' E 007°36'0 0.1
2014-Sep-24 19:33N 47°35' E 007°36'0 0.0
2014-Sep-24 18:33N 47°35' E 007°36'0 0.0
2014-Sep-24 17:33N 47°35' E 007°36'0 0.0
2014-Sep-24 16:33N 47°35' E 007°36'0 0.0
2014-Sep-24 15:33N 47°35' E 007°36'0 0.0
2014-Sep-24 14:33N 47°35' E 007°36'0 0.0
2014-Sep-24 13:33N 47°35' E 007°36'0 0.0
2014-Sep-24 09:15N 47°35' E 007°36'0 0.1
2014-Sep-24 08:33N 47°35' E 007°36'1 1.3
2014-Sep-24 07:30N 47°36' E 007°35'0 0.0
2014-Sep-24 06:33N 47°36' E 007°35'0 0.0
2014-Sep-24 05:33N 47°36' E 007°35'0 0.0
2014-Sep-24 04:33N 47°36' E 007°35'0 0.0
2014-Sep-24 03:33N 47°36' E 007°35'0 0.0
2014-Sep-24 02:33N 47°36' E 007°35'0 0.0
2014-Sep-24 01:33N 47°36' E 007°35'0 0.0
2014-Sep-24 00:33N 47°36' E 007°35'0 0.0
2014-Sep-23 23:33N 47°36' E 007°35'0 0.0
2014-Sep-23 22:33N 47°36' E 007°35'0 0.0
2014-Sep-23 21:32N 47°36' E 007°35'0 0.0
2014-Sep-23 20:33N 47°36' E 007°35'3 3.3
2014-Sep-23 19:33N 47°39' E 007°32'63 2.7
2014-Sep-22 20:08N 48°40' E 007°54'2 2.8
2014-Sep-22 19:33N 48°41' E 007°55'0 0.2
2014-Sep-22 18:33N 48°41' E 007°55'5 4.6
2014-Sep-22 17:32N 48°46' E 007°58'10 4.4
2014-Sep-22 15:10N 48°54' E 008°08'3 4.4
2014-Sep-22 14:33N 48°56' E 008°11'4 4.1
2014-Sep-22 13:32N 48°59' E 008°15'4 4.1
2014-Sep-22 12:33N 49°02' E 008°18'4 4.4
2014-Sep-22 11:33N 49°06' E 008°22'4 4.3
2014-Sep-22 10:33N 49°10' E 008°22'4 4.5
2014-Sep-22 09:33N 49°15' E 008°24'5 4.6
2014-Sep-22 08:32N 49°18' E 008°29'4 3.7
2014-Sep-22 07:33N 49°22' E 008°30'121 3.8
2014-Sep-21 00:03N 51°06' E 006°53'2 4.3
2014-Sep-20 23:33N 51°08' E 006°51'2 2.3
2014-Sep-20 22:33N 51°09' E 006°48'4 3.6
2014-Sep-20 21:33N 51°11' E 006°44'3 2.9
2014-Sep-20 20:33N 51°14' E 006°46'4 4.0
2014-Sep-20 19:33N 51°17' E 006°43'  
Track history (hours):
 
Tides and Currents Weather Stations Pressure Air Temp Water Temp Dewpoint Dewpoint Depression Visibility Wind Speed Wind Dir Waves Ship Positions

Kvb Contargo III & X

Last reported at 2014-Sep-30 11:33 UTC. Time now 2014-Sep-30 11:53 UTC.
Position N 51°18' E 004°16'.

Length 182 m.

Type: Ship. MMSI: 244670090.

Date/timePositionNaut miles runAvg speedWind from/ knotsBaromVisibWave heightAir tempDewpointWater temp
2014-Sep-30 11:33N 51°18' E 004°16'2 2.4
2014-Sep-30 10:33N 51°20' E 004°16'1 1.0
2014-Sep-30 09:33N 51°21' E 004°16'0 0.0
2014-Sep-30 08:33N 51°21' E 004°16'1 0.8
2014-Sep-30 07:33N 51°20' E 004°17'0 0.0
2014-Sep-30 06:33N 51°20' E 004°17'0 0.0
2014-Sep-30 05:33N 51°20' E 004°17'0 0.3
2014-Sep-30 04:34N 51°21' E 004°16'1 0.6
2014-Sep-30 03:33N 51°21' E 004°17'2 2.0
2014-Sep-30 02:33N 51°23' E 004°16'5 5.5
2014-Sep-30 01:33N 51°28' E 004°14'10 8.6
2014-Sep-30 00:27N 51°37' E 004°12'8 8.7
2014-Sep-29 23:32N 51°41' E 004°23'5 5.1
2014-Sep-29 22:33N 51°42' E 004°32'9 8.9
2014-Sep-29 21:33N 51°45' E 004°44'9 8.7
2014-Sep-29 20:33N 51°50' E 004°57'9 9.6
2014-Sep-29 19:33N 51°49' E 005°12'9 8.6
2014-Sep-29 18:33N 51°52' E 005°25'10 9.8
2014-Sep-29 17:33N 51°54' E 005°41'9 9.3
2014-Sep-29 16:33N 51°52' E 005°55'16 8.1
2014-Sep-29 14:33N 51°46' E 006°20'29 7.1
2014-Sep-29 10:30N 51°21' E 006°41'8 8.4
2014-Sep-29 09:33N 51°13' E 006°46'5 4.8
2014-Sep-29 08:33N 51°09' E 006°49'6 5.9
2014-Sep-29 07:33N 51°04' E 006°54'124 7.3
2014-Sep-28 14:33N 49°14' E 008°24'2 2.4
2014-Sep-28 13:33N 49°12' E 008°23'10 9.9
2014-Sep-28 12:32N 49°03' E 008°18'9 9.6
2014-Sep-28 11:33N 48°55' E 008°10'6 5.9
2014-Sep-28 10:33N 48°49' E 008°07'7 7.2
2014-Sep-28 09:33N 48°45' E 007°58'5 4.6
2014-Sep-28 08:33N 48°41' E 007°55'63 1.9
2014-Sep-26 23:15N 47°40' E 007°31'1 1.5
2014-Sep-26 22:24N 47°39' E 007°32'0 0.2
2014-Sep-26 21:27N 47°39' E 007°32'4 3.4
2014-Sep-26 20:24N 47°36' E 007°35'0 0.0
2014-Sep-26 17:24N 47°36' E 007°35'0 0.5
2014-Sep-26 16:33N 47°36' E 007°36'0 0.0
2014-Sep-26 15:33N 47°36' E 007°36'0 0.0
2014-Sep-26 14:33N 47°36' E 007°36'0 0.0
2014-Sep-26 13:33N 47°36' E 007°36'0 0.0
2014-Sep-26 12:33N 47°36' E 007°36'0 0.1
2014-Sep-26 11:13N 47°36' E 007°36'1 1.1
2014-Sep-26 10:33N 47°35' E 007°36'0 0.0
2014-Sep-26 09:33N 47°35' E 007°36'0 0.0
2014-Sep-26 08:33N 47°35' E 007°36'0 0.0
2014-Sep-26 07:33N 47°35' E 007°36'0 0.0
2014-Sep-26 06:33N 47°35' E 007°36'0 0.0
2014-Sep-26 05:33N 47°35' E 007°36'0 0.0
2014-Sep-26 04:33N 47°35' E 007°36'0 0.0
2014-Sep-26 03:33N 47°35' E 007°36'0 0.0
2014-Sep-26 02:33N 47°35' E 007°36'0 0.0
2014-Sep-26 01:33N 47°35' E 007°36'0 0.0
2014-Sep-26 00:33N 47°35' E 007°36'0 0.0
2014-Sep-25 23:33N 47°35' E 007°36'0 0.0
2014-Sep-25 22:33N 47°35' E 007°36'0 0.1
2014-Sep-25 21:33N 47°35' E 007°36'0 0.0
2014-Sep-25 20:33N 47°35' E 007°36'0 0.0
2014-Sep-25 19:32N 47°35' E 007°36'0 0.0
2014-Sep-25 18:33N 47°35' E 007°36'0 0.1
2014-Sep-25 17:33N 47°35' E 007°36'0 0.0
2014-Sep-25 16:33N 47°35' E 007°36'0 0.0
2014-Sep-25 15:33N 47°35' E 007°36'1 1.2
2014-Sep-25 14:33N 47°36' E 007°35'0 0.1
2014-Sep-25 13:33N 47°36' E 007°35'1 0.2
2014-Sep-25 07:33N 47°35' E 007°36'0 0.0
2014-Sep-25 06:33N 47°35' E 007°36'0 0.0
2014-Sep-25 05:33N 47°35' E 007°36'0 0.0
2014-Sep-25 04:34N 47°35' E 007°36'0 0.0
2014-Sep-25 03:33N 47°35' E 007°36'0 0.0
2014-Sep-25 02:33N 47°35' E 007°36'0 0.0
2014-Sep-25 01:33N 47°35' E 007°36'0 0.0
2014-Sep-25 00:33N 47°35' E 007°36'0 0.0
2014-Sep-24 23:33N 47°35' E 007°36'0 0.0
2014-Sep-24 22:33N 47°35' E 007°36'0 0.0
2014-Sep-24 21:33N 47°35' E 007°36'0 0.0
2014-Sep-24 20:33N 47°35' E 007°36'0 0.1
2014-Sep-24 19:33N 47°35' E 007°36'0 0.0
2014-Sep-24 18:33N 47°35' E 007°36'0 0.0
2014-Sep-24 17:33N 47°35' E 007°36'0 0.0
2014-Sep-24 16:33N 47°35' E 007°36'0 0.0
2014-Sep-24 15:33N 47°35' E 007°36'0 0.0
2014-Sep-24 14:33N 47°35' E 007°36'0 0.0
2014-Sep-24 13:33N 47°35' E 007°36'0 0.0
2014-Sep-24 09:15N 47°35' E 007°36'0 0.1
2014-Sep-24 08:33N 47°35' E 007°36'1 1.3
2014-Sep-24 07:30N 47°36' E 007°35'0 0.0
2014-Sep-24 06:33N 47°36' E 007°35'0 0.0
2014-Sep-24 05:33N 47°36' E 007°35'0 0.0
2014-Sep-24 04:33N 47°36' E 007°35'0 0.0
2014-Sep-24 03:33N 47°36' E 007°35'0 0.0
2014-Sep-24 02:33N 47°36' E 007°35'0 0.0
2014-Sep-24 01:33N 47°36' E 007°35'0 0.0
2014-Sep-24 00:33N 47°36' E 007°35'0 0.0
2014-Sep-23 23:33N 47°36' E 007°35'0 0.0
2014-Sep-23 22:33N 47°36' E 007°35'0 0.0
2014-Sep-23 21:32N 47°36' E 007°35'0 0.0
2014-Sep-23 20:33N 47°36' E 007°35'3 3.3
2014-Sep-23 19:33N 47°39' E 007°32'63 2.7
2014-Sep-22 20:08N 48°40' E 007°54'2 2.8
2014-Sep-22 19:33N 48°41' E 007°55'0 0.2
2014-Sep-22 18:33N 48°41' E 007°55'5 4.6
2014-Sep-22 17:32N 48°46' E 007°58'10 4.4
2014-Sep-22 15:10N 48°54' E 008°08'3 4.4
2014-Sep-22 14:33N 48°56' E 008°11'4 4.1
2014-Sep-22 13:32N 48°59' E 008°15'4 4.1
2014-Sep-22 12:33N 49°02' E 008°18'4 4.4
2014-Sep-22 11:33N 49°06' E 008°22'4 4.3
2014-Sep-22 10:33N 49°10' E 008°22'4 4.5
2014-Sep-22 09:33N 49°15' E 008°24'5 4.6
2014-Sep-22 08:32N 49°18' E 008°29'4 3.7
2014-Sep-22 07:33N 49°22' E 008°30'121 3.8
2014-Sep-21 00:03N 51°06' E 006°53'2 4.3
2014-Sep-20 23:33N 51°08' E 006°51'2 2.3
2014-Sep-20 22:33N 51°09' E 006°48'4 3.6
2014-Sep-20 21:33N 51°11' E 006°44'3 2.9
2014-Sep-20 20:33N 51°14' E 006°46'4 4.0
2014-Sep-20 19:33N 51°17' E 006°43'  

Dump ship's entire track history